createdAt,value
2023-08-11T00:01:31.425Z,3.67
2023-08-11T00:03:59.675Z,3.47
2023-08-11T00:06:27.865Z,3.40
2023-08-11T00:08:55.914Z,3.77
2023-08-11T00:11:25.296Z,3.30
2023-08-11T00:13:53.449Z,3.50
2023-08-11T00:16:22.965Z,3.90
2023-08-11T00:18:51.986Z,3.30
2023-08-11T00:21:20.013Z,3.93
2023-08-11T00:23:48.078Z,3.70
2023-08-11T00:26:16.154Z,3.70
2023-08-11T00:28:45.494Z,4.10
2023-08-11T00:31:14.726Z,3.70
2023-08-11T00:33:47.775Z,3.87
2023-08-11T00:36:16.284Z,4.00
2023-08-11T00:38:44.397Z,4.00
2023-08-11T00:41:12.684Z,3.70
2023-08-11T00:43:41.332Z,3.30
2023-08-11T00:46:11.777Z,3.97
2023-08-11T00:48:40.418Z,3.57
2023-08-11T00:51:11.061Z,3.83
2023-08-11T00:53:39.368Z,3.70
2023-08-11T00:56:08.528Z,4.27
2023-08-11T00:58:37.641Z,3.83
2023-08-11T01:01:05.964Z,4.40
2023-08-11T01:03:34.234Z,4.10
2023-08-11T01:06:09.756Z,3.80
2023-08-11T01:08:50.136Z,4.37
2023-08-11T01:11:27.973Z,4.33
2023-08-11T01:14:03.378Z,4.10
2023-08-11T01:16:33.848Z,4.40
2023-08-11T01:19:04.817Z,4.30
2023-08-11T01:21:36.902Z,4.37
2023-08-11T01:24:07.366Z,4.30
2023-08-11T01:26:35.584Z,4.20
2023-08-11T01:29:03.645Z,4.40
2023-08-11T01:31:31.747Z,4.03
2023-08-11T01:33:59.816Z,4.30
2023-08-11T01:36:27.874Z,4.20
2023-08-11T01:38:56.005Z,4.00
2023-08-11T01:41:25.873Z,4.10
2023-08-11T01:43:55.171Z,4.03
2023-08-11T01:46:25.068Z,4.10
2023-08-11T01:48:54.853Z,4.47
2023-08-11T01:51:23.281Z,3.80
2023-08-11T01:53:51.597Z,4.07
2023-08-11T01:56:20.305Z,3.87
2023-08-11T01:58:49.897Z,3.87
2023-08-11T02:01:18.010Z,4.50
2023-08-11T02:03:46.247Z,3.97
2023-08-11T02:06:14.471Z,4.00
2023-08-11T02:08:42.526Z,4.07
2023-08-11T02:11:10.589Z,4.37
2023-08-11T02:13:38.632Z,4.30
2023-08-11T02:16:08.155Z,4.37
2023-08-11T02:18:36.268Z,4.37
2023-08-11T02:21:04.579Z,4.63
2023-08-11T02:23:32.671Z,4.80
2023-08-11T02:26:02.189Z,4.50
2023-08-11T02:28:30.372Z,4.77
2023-08-11T02:30:58.513Z,5.00
2023-08-11T02:33:28.071Z,4.70
2023-08-11T02:35:56.210Z,4.80
2023-08-11T02:38:24.288Z,4.90
2023-08-11T02:40:52.563Z,4.73
2023-08-11T02:43:20.667Z,4.37
2023-08-11T02:45:48.807Z,4.87
2023-08-11T02:48:16.881Z,4.53
2023-08-11T02:50:46.393Z,4.90
2023-08-11T02:53:14.484Z,4.90
2023-08-11T02:55:42.560Z,4.37
2023-08-11T02:58:10.657Z,4.70
2023-08-11T03:00:38.929Z,4.50
2023-08-11T03:03:07.222Z,4.70
2023-08-11T03:05:35.509Z,4.37
2023-08-11T03:08:05.622Z,4.87
2023-08-11T03:10:43.339Z,5.17
2023-08-11T03:13:22.498Z,5.00
2023-08-11T03:15:50.648Z,5.37
2023-08-11T03:18:18.771Z,4.80
2023-08-11T03:20:47.135Z,5.20
2023-08-11T03:23:16.722Z,4.87
2023-08-11T03:25:44.919Z,4.90
2023-08-11T03:28:13.227Z,5.27
2023-08-11T03:30:41.400Z,5.23
2023-08-11T03:33:09.717Z,5.10
2023-08-11T03:35:37.816Z,4.70
2023-08-11T03:38:06.558Z,4.50
2023-08-11T03:40:36.095Z,4.90
2023-08-11T03:43:05.005Z,4.87
2023-08-11T03:45:33.169Z,5.53
2023-08-11T03:48:01.416Z,5.60
2023-08-11T03:50:29.508Z,4.80
2023-08-11T03:52:57.656Z,5.43
2023-08-11T03:55:25.734Z,5.57
2023-08-11T03:57:55.256Z,5.20
2023-08-11T04:00:24.711Z,4.93
2023-08-11T04:02:53.107Z,5.37
2023-08-11T04:05:21.232Z,5.00
2023-08-11T04:07:49.771Z,4.90
2023-08-11T04:10:18.268Z,5.17
2023-08-11T04:12:46.389Z,5.50
2023-08-11T04:15:16.616Z,5.10
2023-08-11T04:17:44.768Z,4.97
2023-08-11T04:20:14.422Z,5.03
2023-08-11T04:22:43.228Z,5.30
2023-08-11T04:25:12.904Z,5.27
2023-08-11T04:27:41.881Z,5.53
2023-08-11T04:30:11.930Z,5.30
2023-08-11T04:32:41.399Z,5.30
2023-08-11T04:35:10.042Z,5.73
2023-08-11T04:37:38.219Z,5.93
2023-08-11T04:40:12.442Z,5.40
2023-08-11T04:42:40.614Z,5.47
2023-08-11T04:45:10.152Z,5.87
2023-08-11T04:47:38.742Z,5.67
2023-08-11T04:50:09.930Z,5.90
2023-08-11T04:52:38.324Z,5.80
2023-08-11T04:55:08.634Z,5.90
2023-08-11T04:57:37.021Z,5.20
2023-08-11T05:00:07.628Z,5.10
2023-08-11T05:02:35.797Z,5.60
2023-08-11T05:05:06.677Z,5.70
2023-08-11T05:07:36.111Z,5.17
2023-08-11T05:10:05.476Z,5.20
2023-08-11T05:12:33.531Z,4.90
2023-08-11T05:15:01.629Z,5.57
2023-08-11T05:17:29.851Z,5.93
2023-08-11T05:19:58.145Z,6.33
2023-08-11T05:22:26.332Z,5.70
2023-08-11T05:24:55.738Z,5.40
2023-08-11T05:27:24.141Z,5.60
2023-08-11T05:29:52.283Z,5.73
2023-08-11T05:32:20.436Z,5.17
2023-08-11T05:34:48.530Z,5.70
2023-08-11T05:37:16.598Z,5.37
2023-08-11T05:39:44.792Z,5.60
2023-08-11T05:42:14.204Z,5.00
2023-08-11T05:44:42.357Z,4.77
2023-08-11T05:47:10.764Z,5.07
2023-08-11T05:49:39.122Z,5.00
2023-08-11T05:52:07.713Z,4.17
2023-08-11T05:54:35.778Z,5.30
2023-08-11T05:57:03.999Z,5.13
2023-08-11T05:59:33.457Z,4.77
2023-08-11T06:02:01.602Z,4.37
2023-08-11T06:04:29.680Z,4.57
2023-08-11T06:06:57.929Z,4.77
2023-08-11T06:09:26.044Z,4.60
2023-08-11T06:11:54.169Z,4.30
2023-08-11T06:14:22.284Z,4.00
2023-08-11T06:16:51.745Z,3.90
2023-08-11T06:19:19.886Z,3.80
2023-08-11T06:21:48.323Z,3.23
2023-08-11T06:24:16.512Z,3.50
2023-08-11T06:26:45.927Z,3.47
2023-08-11T06:29:14.046Z,3.50
2023-08-11T06:31:44.043Z,3.50
2023-08-11T06:34:13.654Z,3.33
2023-08-11T06:36:41.713Z,3.47
2023-08-11T06:39:09.864Z,3.60
2023-08-11T06:41:37.967Z,3.90
2023-08-11T06:44:06.336Z,3.33
2023-08-11T06:46:34.555Z,3.73
2023-08-11T06:49:03.692Z,3.43
2023-08-11T06:51:33.234Z,3.40
2023-08-11T06:54:01.345Z,2.97
2023-08-11T06:56:29.486Z,3.30
2023-08-11T06:58:57.580Z,3.10
2023-08-11T07:01:25.769Z,3.10
2023-08-11T07:03:53.860Z,3.23
2023-08-11T07:06:22.049Z,2.80
2023-08-11T07:08:51.571Z,2.50
2023-08-11T07:11:19.798Z,2.83
2023-08-11T07:13:47.889Z,3.10
2023-08-11T07:16:16.026Z,2.57
2023-08-11T07:18:44.198Z,2.73
2023-08-11T07:21:12.354Z,2.60
2023-08-11T07:23:40.744Z,3.00
2023-08-11T07:26:10.255Z,2.70
2023-08-11T07:28:38.313Z,2.45
2023-08-11T07:31:06.554Z,2.90
2023-08-11T07:33:34.867Z,2.55
2023-08-11T07:36:02.966Z,2.50
2023-08-11T07:38:31.414Z,2.40
2023-08-11T07:40:59.537Z,2.47
2023-08-11T07:43:29.040Z,2.72
2023-08-11T07:45:57.192Z,2.58
2023-08-11T07:48:25.429Z,2.83
2023-08-11T07:50:53.646Z,2.60
2023-08-11T07:53:21.809Z,2.60
2023-08-11T07:55:50.194Z,2.70
2023-08-11T07:58:18.570Z,2.60
2023-08-11T08:00:48.326Z,2.20
2023-08-11T08:03:18.619Z,2.70
2023-08-11T08:05:47.010Z,2.70
2023-08-11T08:08:15.311Z,2.20
2023-08-11T08:10:43.563Z,2.50
2023-08-11T08:13:11.796Z,2.90
2023-08-11T08:15:40.028Z,2.20
2023-08-11T08:18:09.609Z,2.83
2023-08-11T08:20:37.762Z,2.63
2023-08-11T08:23:06.123Z,2.70
2023-08-11T08:25:34.296Z,2.40
2023-08-11T08:28:06.713Z,2.70
2023-08-11T08:30:35.558Z,2.70
2023-08-11T08:33:03.862Z,2.45
2023-08-11T08:35:33.696Z,2.50
2023-08-11T08:38:01.821Z,2.67
2023-08-11T08:40:30.867Z,2.80
2023-08-11T08:42:59.363Z,2.50
2023-08-11T08:45:27.970Z,2.67
2023-08-11T08:47:58.517Z,2.47
2023-08-11T08:50:27.524Z,2.50
2023-08-11T08:52:58.022Z,2.45
2023-08-11T08:55:26.819Z,2.63
2023-08-11T08:57:57.019Z,2.35
2023-08-11T09:00:26.987Z,2.60
2023-08-11T09:02:56.985Z,2.38
2023-08-11T09:05:26.594Z,2.70
2023-08-11T09:07:56.347Z,2.50
2023-08-11T09:10:26.828Z,2.30
2023-08-11T09:12:54.981Z,2.50
2023-08-11T09:15:24.376Z,2.40
2023-08-11T09:17:53.165Z,2.47
2023-08-11T09:20:21.793Z,2.30
2023-08-11T09:22:51.512Z,2.50
2023-08-11T09:25:21.169Z,2.38
2023-08-11T09:27:52.346Z,2.20
2023-08-11T09:30:21.132Z,2.50
2023-08-11T09:32:50.492Z,2.40
2023-08-11T09:35:25.620Z,2.38
2023-08-11T09:37:54.906Z,2.35
2023-08-11T09:40:25.201Z,2.17
2023-08-11T09:42:56.712Z,2.17
2023-08-11T09:45:26.237Z,2.00
2023-08-11T09:47:54.584Z,2.08
2023-08-11T09:50:24.415Z,2.10
2023-08-11T09:52:53.139Z,2.10
2023-08-11T09:55:22.480Z,2.00
2023-08-11T09:57:53.324Z,2.00
2023-08-11T10:00:21.415Z,2.15
2023-08-11T10:02:58.578Z,2.28
2023-08-11T10:05:30.941Z,2.05
2023-08-11T10:08:02.472Z,2.10
2023-08-11T10:10:33.387Z,2.10
2023-08-11T10:13:08.035Z,2.10
2023-08-11T10:15:36.789Z,1.98
2023-08-11T10:18:06.837Z,1.95
2023-08-11T10:20:35.347Z,2.00
2023-08-11T10:23:04.567Z,2.08
2023-08-11T10:25:34.108Z,2.13
2023-08-11T10:28:08.257Z,2.15
2023-08-11T10:30:36.484Z,1.90
2023-08-11T10:33:10.708Z,2.25
2023-08-11T10:35:50.671Z,2.05
2023-08-11T10:38:25.158Z,2.00
2023-08-11T10:41:00.933Z,2.35
2023-08-11T10:43:33.629Z,2.15
2023-08-11T10:46:22.707Z,2.00
2023-08-11T10:48:51.626Z,2.13
2023-08-11T10:51:33.332Z,2.47
2023-08-11T10:54:13.030Z,2.03
2023-08-11T10:56:42.582Z,1.98
2023-08-11T10:59:15.709Z,2.10
2023-08-11T11:01:46.760Z,2.00
2023-08-11T11:04:16.971Z,2.00
2023-08-11T11:06:46.684Z,2.08
2023-08-11T11:09:15.978Z,1.90
2023-08-11T11:11:45.734Z,2.00
2023-08-11T11:14:15.922Z,2.10
2023-08-11T11:16:44.927Z,1.90
2023-08-11T11:19:13.124Z,2.20
2023-08-11T11:21:42.311Z,2.03
2023-08-11T11:24:11.460Z,2.10
2023-08-11T11:26:39.751Z,2.00
2023-08-11T11:29:08.098Z,2.10
2023-08-11T11:31:39.502Z,2.30
2023-08-11T11:34:08.623Z,2.22
2023-08-11T11:36:36.775Z,2.10
2023-08-11T11:39:06.606Z,2.20
2023-08-11T11:41:34.905Z,2.23
2023-08-11T11:44:03.600Z,1.80
2023-08-11T11:46:34.675Z,2.10
2023-08-11T11:49:15.827Z,1.90
2023-08-11T11:51:52.393Z,2.40
2023-08-11T11:54:20.542Z,2.10
2023-08-11T11:57:02.329Z,2.10
2023-08-11T11:59:33.489Z,2.00
2023-08-11T12:02:03.048Z,2.13
2023-08-11T12:04:33.258Z,1.80
2023-08-11T12:07:02.999Z,2.13
2023-08-11T12:09:31.258Z,2.10
2023-08-11T12:11:59.366Z,2.10
2023-08-11T12:14:28.906Z,2.20
2023-08-11T12:16:58.430Z,1.90
2023-08-11T12:19:26.757Z,1.90
2023-08-11T12:21:57.148Z,2.07
2023-08-11T12:24:25.338Z,1.93
2023-08-11T12:26:53.488Z,2.47
2023-08-11T12:29:21.588Z,2.07
2023-08-11T12:31:51.716Z,2.00
2023-08-11T12:34:19.901Z,1.83
2023-08-11T12:36:48.016Z,2.07
2023-08-11T12:39:18.217Z,1.90
2023-08-11T12:41:46.474Z,2.20
2023-08-11T12:44:14.825Z,2.20
2023-08-11T12:46:43.581Z,2.10
2023-08-11T12:49:13.853Z,2.00
2023-08-11T12:51:42.482Z,2.10
2023-08-11T12:54:10.611Z,1.93
2023-08-11T12:56:40.606Z,1.80
2023-08-11T12:59:08.884Z,1.77
2023-08-11T13:01:37.082Z,2.17
2023-08-11T13:04:07.078Z,2.00
2023-08-11T13:06:35.499Z,2.17
2023-08-11T13:09:04.782Z,2.27
2023-08-11T13:11:33.109Z,2.20
2023-08-11T13:14:03.644Z,2.07
2023-08-11T13:16:32.099Z,2.10
2023-08-11T13:19:00.306Z,2.10
2023-08-11T13:21:28.650Z,2.23
2023-08-11T13:23:56.700Z,2.20
2023-08-11T13:26:24.807Z,1.87
2023-08-11T13:28:55.017Z,2.20
2023-08-11T13:31:24.526Z,2.20
2023-08-11T13:33:52.700Z,2.03
2023-08-11T13:36:20.930Z,1.90
2023-08-11T13:38:49.020Z,2.10
2023-08-11T13:41:17.191Z,2.10
2023-08-11T13:43:45.311Z,2.10
2023-08-11T13:46:13.514Z,2.13
2023-08-11T13:48:43.074Z,2.07
2023-08-11T13:51:11.283Z,2.20
2023-08-11T13:53:39.463Z,2.00
2023-08-11T13:56:07.696Z,2.03
2023-08-11T13:58:36.645Z,2.10
2023-08-11T14:01:04.807Z,2.30
2023-08-11T14:03:33.814Z,2.00
2023-08-11T14:06:03.666Z,2.00
2023-08-11T14:08:31.764Z,2.27
2023-08-11T14:11:00.161Z,2.30
2023-08-11T14:13:29.332Z,3.00
2023-08-11T14:15:58.810Z,3.43
2023-08-11T14:18:26.969Z,2.50
2023-08-11T14:20:55.084Z,2.60
2023-08-11T14:23:24.854Z,2.37
2023-08-11T14:25:53.008Z,2.50
2023-08-11T14:28:21.235Z,2.10
2023-08-11T14:30:52.043Z,2.20
2023-08-11T14:33:21.249Z,2.10
2023-08-11T14:35:49.533Z,1.90
2023-08-11T14:38:17.618Z,2.20
2023-08-11T14:40:47.147Z,2.23
2023-08-11T14:43:16.072Z,2.00
2023-08-11T14:45:44.954Z,2.00
2023-08-11T14:48:13.327Z,1.83
2023-08-11T14:50:41.473Z,1.97
2023-08-11T14:53:09.651Z,1.80
2023-08-11T14:55:37.799Z,2.00
2023-08-11T14:58:07.719Z,1.90
2023-08-11T15:00:35.821Z,1.90
2023-08-11T15:03:04.181Z,2.00
2023-08-11T15:05:32.551Z,2.00
2023-08-11T15:08:00.766Z,2.00
2023-08-11T15:10:29.256Z,1.70
2023-08-11T15:12:57.457Z,2.00
2023-08-11T15:15:26.942Z,1.80
2023-08-11T15:17:55.244Z,1.80
2023-08-11T15:20:23.397Z,1.93
2023-08-11T15:22:51.945Z,2.00
2023-08-11T15:25:20.169Z,2.00
2023-08-11T15:27:48.415Z,1.90
2023-08-11T15:30:16.739Z,2.10
2023-08-11T15:32:46.230Z,2.00
2023-08-11T15:35:15.889Z,1.90
2023-08-11T15:37:44.032Z,1.90
2023-08-11T15:40:13.138Z,2.03
2023-08-11T15:42:41.250Z,1.80
2023-08-11T15:45:10.138Z,1.97
2023-08-11T15:47:38.229Z,1.90
2023-08-11T15:50:08.761Z,1.83
2023-08-11T15:52:37.618Z,1.70
2023-08-11T15:55:06.098Z,1.90
2023-08-11T15:57:34.255Z,1.80
2023-08-11T16:00:02.751Z,1.70
2023-08-11T16:02:30.892Z,1.80
2023-08-11T16:04:59.141Z,1.90
2023-08-11T16:07:29.041Z,1.80
2023-08-11T16:09:57.156Z,1.90
2023-08-11T16:12:25.283Z,2.00
2023-08-11T16:14:53.397Z,1.90
2023-08-11T16:17:21.526Z,1.90
2023-08-11T16:19:49.628Z,1.90
2023-08-11T16:22:17.773Z,2.10
2023-08-11T16:24:47.156Z,1.77
2023-08-11T16:27:15.301Z,1.80
2023-08-11T16:29:43.411Z,2.00
2023-08-11T16:32:11.750Z,1.80
2023-08-11T16:34:40.117Z,2.10
2023-08-11T16:37:08.146Z,2.00
2023-08-11T16:39:36.236Z,2.00
2023-08-11T16:42:06.479Z,2.00
2023-08-11T16:44:34.686Z,2.20
2023-08-11T16:47:03.933Z,3.83
2023-08-11T16:49:32.039Z,3.13
2023-08-11T16:52:01.666Z,5.27
2023-08-11T16:54:30.690Z,3.87
2023-08-11T16:56:59.420Z,2.80
2023-08-11T16:59:28.882Z,2.27
2023-08-11T17:01:57.696Z,2.30
2023-08-11T17:04:25.958Z,2.30
2023-08-11T17:06:54.072Z,2.10
2023-08-11T17:09:22.285Z,2.33
2023-08-11T17:11:50.472Z,2.40
2023-08-11T17:14:18.835Z,2.30
2023-08-11T17:16:48.355Z,2.23
2023-08-11T17:19:16.570Z,2.33
2023-08-11T17:21:45.389Z,2.40
2023-08-11T17:24:13.690Z,2.20
2023-08-11T17:26:42.074Z,2.60
2023-08-11T17:29:10.323Z,2.50
2023-08-11T17:31:38.551Z,3.03
2023-08-11T17:34:08.118Z,2.60
2023-08-11T17:36:36.533Z,2.73
2023-08-11T17:39:05.460Z,3.03
2023-08-11T17:41:33.904Z,2.27
2023-08-11T17:44:02.099Z,2.30
2023-08-11T17:46:30.432Z,2.30
2023-08-11T17:48:58.789Z,2.40
2023-08-11T17:51:28.289Z,2.10
2023-08-11T17:54:08.863Z,2.30
2023-08-11T17:56:38.534Z,2.43
2023-08-11T17:59:07.252Z,2.37
2023-08-11T18:01:35.467Z,2.07
2023-08-11T18:04:08.007Z,2.33
2023-08-11T18:06:38.251Z,2.60
2023-08-11T18:09:07.274Z,2.37
2023-08-11T18:11:36.565Z,2.33
2023-08-11T18:14:05.026Z,2.13
2023-08-11T18:16:33.840Z,2.37
2023-08-11T18:19:02.560Z,2.20
2023-08-11T18:21:30.880Z,2.10
2023-08-11T18:24:01.200Z,2.23
2023-08-11T18:26:30.892Z,2.10
2023-08-11T18:28:59.159Z,2.60
2023-08-11T18:31:28.358Z,2.50
2023-08-11T18:33:56.779Z,2.30
2023-08-11T18:36:25.045Z,2.30
2023-08-11T18:38:53.146Z,2.30
2023-08-11T18:41:22.894Z,2.50
2023-08-11T18:43:51.086Z,2.40
2023-08-11T18:46:19.141Z,2.67
2023-08-11T18:48:49.667Z,2.40
2023-08-11T18:51:17.981Z,2.27
2023-08-11T18:53:46.130Z,2.40
2023-08-11T18:56:14.350Z,2.37
2023-08-11T18:58:45.080Z,2.73
2023-08-11T19:01:13.458Z,2.30
2023-08-11T19:03:41.808Z,2.40
2023-08-11T19:06:10.559Z,2.30
2023-08-11T19:08:38.624Z,2.60
2023-08-11T19:11:07.020Z,2.40
2023-08-11T19:13:35.102Z,3.40
2023-08-11T19:16:04.853Z,3.17
2023-08-11T19:18:33.093Z,2.70
2023-08-11T19:21:01.294Z,2.60
2023-08-11T19:23:29.545Z,2.40
2023-08-11T19:25:57.643Z,2.80
2023-08-11T19:28:25.813Z,2.70
2023-08-11T19:30:55.055Z,2.80
2023-08-11T19:33:24.607Z,2.87
2023-08-11T19:35:52.820Z,2.73
2023-08-11T19:38:20.966Z,2.50
2023-08-11T19:40:49.745Z,2.30
2023-08-11T19:43:17.875Z,2.83
2023-08-11T19:45:49.821Z,2.60
2023-08-11T19:48:18.469Z,2.87
2023-08-11T19:50:48.554Z,3.10
2023-08-11T19:53:16.951Z,3.30
2023-08-11T19:55:45.633Z,3.13
2023-08-11T19:58:14.042Z,3.40
2023-08-11T20:00:42.399Z,3.60
2023-08-11T20:03:11.382Z,3.80
2023-08-11T20:05:44.735Z,4.20
2023-08-11T20:08:15.070Z,3.80
2023-08-11T20:10:45.745Z,3.10
2023-08-11T20:13:14.270Z,3.10
2023-08-11T20:15:42.617Z,2.93
2023-08-11T20:18:10.895Z,3.00
2023-08-11T20:20:39.083Z,3.37
2023-08-11T20:23:08.195Z,3.10
2023-08-11T20:25:37.716Z,4.47
2023-08-11T20:28:06.670Z,4.20
2023-08-11T20:30:34.804Z,3.90
2023-08-11T20:33:03.013Z,3.63
2023-08-11T20:35:31.128Z,4.00
2023-08-11T20:37:59.399Z,4.20
2023-08-11T20:40:27.733Z,4.23
2023-08-11T20:42:57.248Z,4.40
2023-08-11T20:45:30.607Z,4.17
2023-08-11T20:48:01.125Z,4.47
2023-08-11T20:50:29.574Z,4.13
2023-08-11T20:52:57.858Z,4.23
2023-08-11T20:55:26.029Z,3.70
2023-08-11T20:57:54.185Z,3.97
2023-08-11T21:00:24.124Z,3.70
2023-08-11T21:02:52.345Z,4.03
2023-08-11T21:05:20.447Z,3.80
2023-08-11T21:07:48.563Z,3.60
2023-08-11T21:10:16.723Z,3.47
2023-08-11T21:12:44.881Z,3.37
2023-08-11T21:15:14.403Z,3.40
2023-08-11T21:17:43.983Z,3.37
2023-08-11T21:20:12.480Z,3.70
2023-08-11T21:22:40.569Z,3.70
2023-08-11T21:25:09.214Z,3.60
2023-08-11T21:27:37.374Z,3.40
2023-08-11T21:30:06.001Z,3.27
2023-08-11T21:32:34.130Z,3.30
2023-08-11T21:35:03.673Z,3.20
2023-08-11T21:37:32.031Z,3.40
2023-08-11T21:40:00.300Z,3.30
2023-08-11T21:42:28.449Z,3.37
2023-08-11T21:44:56.627Z,3.50
2023-08-11T21:47:24.898Z,3.30
2023-08-11T21:49:53.201Z,4.33
2023-08-11T21:52:22.697Z,4.40
2023-08-11T21:54:50.792Z,3.70
2023-08-11T21:57:19.982Z,4.17
2023-08-11T21:59:48.203Z,4.03
2023-08-11T22:02:16.385Z,3.80
2023-08-11T22:04:46.215Z,3.83
2023-08-11T22:07:14.536Z,3.47
2023-08-11T22:09:44.515Z,3.83
2023-08-11T22:12:12.901Z,3.70
2023-08-11T22:14:41.023Z,4.50
2023-08-11T22:17:11.035Z,5.20
2023-08-11T22:19:41.050Z,5.43
2023-08-11T22:22:09.159Z,5.30
2023-08-11T22:24:41.529Z,4.73
2023-08-11T22:27:12.687Z,4.63
2023-08-11T22:29:41.183Z,4.07
2023-08-11T22:32:10.455Z,4.60
2023-08-11T22:34:38.486Z,6.50
2023-08-11T22:37:06.660Z,6.00
2023-08-11T22:39:34.788Z,5.03
2023-08-11T22:42:02.888Z,4.20
2023-08-11T22:44:32.361Z,4.80
2023-08-11T22:47:00.441Z,4.37
2023-08-11T22:49:28.597Z,4.40
2023-08-11T22:51:56.695Z,4.50
2023-08-11T22:54:24.821Z,4.20
2023-08-11T22:56:52.869Z,4.03
2023-08-11T22:59:21.638Z,4.33
2023-08-11T23:01:51.188Z,3.90
2023-08-11T23:04:19.389Z,4.20
2023-08-11T23:06:47.469Z,3.90
2023-08-11T23:09:15.611Z,3.73
2023-08-11T23:11:43.692Z,3.73
2023-08-11T23:14:11.781Z,3.90
2023-08-11T23:16:39.985Z,4.17
2023-08-11T23:19:09.445Z,3.83
2023-08-11T23:21:37.561Z,3.93
2023-08-11T23:24:06.559Z,3.80
2023-08-11T23:26:34.725Z,3.97
2023-08-11T23:29:02.812Z,4.00
2023-08-11T23:31:30.919Z,3.97
2023-08-11T23:33:59.537Z,3.80
2023-08-11T23:36:28.986Z,4.37
2023-08-11T23:38:57.027Z,4.40
2023-08-11T23:41:26.466Z,4.13
2023-08-11T23:43:54.707Z,4.23
2023-08-11T23:46:22.782Z,4.17
2023-08-11T23:48:50.946Z,4.57
2023-08-11T23:51:19.329Z,4.70
2023-08-11T23:53:48.868Z,4.27
2023-08-11T23:56:17.001Z,4.80
2023-08-11T23:58:45.054Z,4.70
